createdAt,value
2023-05-01T00:00:07.458Z,11.00
2023-05-01T00:02:35.694Z,11.00
2023-05-01T00:05:04.379Z,11.00
2023-05-01T00:07:32.660Z,11.00
2023-05-01T00:10:00.917Z,10.90
2023-05-01T00:12:30.894Z,10.90
2023-05-01T00:14:58.838Z,10.90
2023-05-01T00:17:27.223Z,10.80
2023-05-01T00:19:55.570Z,10.80
2023-05-01T00:22:23.849Z,10.70
2023-05-01T00:24:51.883Z,10.60
2023-05-01T00:27:20.032Z,10.60
2023-05-01T00:29:49.626Z,10.60
2023-05-01T00:32:17.822Z,10.50
2023-05-01T00:34:48.428Z,10.50
2023-05-01T00:37:17.446Z,10.50
2023-05-01T00:39:45.609Z,10.50
2023-05-01T00:42:13.729Z,10.50
2023-05-01T00:44:41.809Z,10.40
2023-05-01T00:47:11.812Z,10.30
2023-05-01T00:49:41.713Z,10.30
2023-05-01T00:52:09.984Z,10.20
2023-05-01T00:54:38.374Z,10.20
2023-05-01T00:57:08.269Z,10.30
2023-05-01T00:59:36.457Z,10.20
2023-05-01T01:02:04.657Z,10.20
2023-05-01T01:04:34.433Z,10.20
2023-05-01T01:07:12.785Z,10.20
2023-05-01T01:09:52.591Z,10.10
2023-05-01T01:12:28.186Z,10.10
2023-05-01T01:15:00.144Z,10.20
2023-05-01T01:17:33.167Z,10.20
2023-05-01T01:20:32.620Z,10.20
2023-05-01T01:23:25.672Z,10.20
2023-05-01T01:26:40.254Z,10.20
2023-05-01T01:29:43.819Z,10.20
2023-05-01T01:32:28.444Z,10.30
2023-05-01T01:35:02.771Z,10.10
2023-05-01T01:37:41.939Z,10.20
2023-05-01T01:40:14.214Z,10.20
2023-05-01T01:42:47.205Z,10.20
2023-05-01T01:45:21.387Z,10.20
2023-05-01T01:47:51.015Z,10.20
2023-05-01T01:50:23.697Z,10.20
2023-05-01T01:52:54.144Z,10.30
2023-05-01T01:55:27.641Z,10.30
2023-05-01T01:57:59.564Z,10.30
2023-05-01T02:00:29.039Z,10.30
2023-05-01T02:02:59.997Z,10.40
2023-05-01T02:05:30.349Z,10.40
2023-05-01T02:08:00.169Z,10.50
2023-05-01T02:10:30.020Z,10.50
2023-05-01T02:13:00.128Z,10.50
2023-05-01T02:15:29.880Z,10.50
2023-05-01T02:17:59.354Z,10.40
2023-05-01T02:20:29.396Z,10.40
2023-05-01T02:22:58.621Z,10.40
2023-05-01T02:25:30.355Z,10.40
2023-05-01T02:28:01.700Z,10.40
2023-05-01T02:30:29.966Z,10.40
2023-05-01T02:32:58.488Z,10.40
2023-05-01T02:35:26.718Z,10.30
2023-05-01T02:37:56.153Z,10.40
2023-05-01T02:40:25.185Z,10.40
2023-05-01T02:42:54.382Z,10.40
2023-05-01T02:45:24.761Z,10.40
2023-05-01T02:47:57.127Z,10.30
2023-05-01T02:53:15.740Z,10.30
2023-05-01T02:55:44.225Z,10.30
2023-05-01T02:58:16.702Z,10.30
2023-05-01T03:00:45.620Z,10.30
2023-05-01T03:03:13.890Z,10.30
2023-05-01T03:05:42.132Z,10.30
2023-05-01T03:08:11.632Z,10.40
2023-05-01T03:10:43.186Z,10.40
2023-05-01T03:13:11.974Z,10.30
2023-05-01T03:15:40.209Z,10.40
2023-05-01T03:18:09.451Z,10.40
2023-05-01T03:20:37.678Z,10.40
2023-05-01T03:23:06.488Z,10.40
2023-05-01T03:25:34.618Z,10.40
2023-05-01T03:28:04.160Z,10.50
2023-05-01T03:30:35.197Z,10.60
2023-05-01T03:33:03.748Z,10.60
2023-05-01T03:35:31.933Z,10.50
2023-05-01T03:38:00.470Z,10.50
2023-05-01T03:40:28.604Z,10.50
2023-05-01T03:42:56.665Z,10.40
2023-05-01T03:45:26.100Z,10.40
2023-05-01T03:47:54.249Z,10.50
2023-05-01T03:50:22.325Z,10.40
2023-05-01T03:52:50.428Z,10.30
2023-05-01T03:55:18.668Z,10.30
2023-05-01T03:57:47.983Z,10.40
2023-05-01T04:00:16.137Z,10.40
2023-05-01T04:02:45.787Z,10.40
2023-05-01T04:05:14.521Z,10.40
2023-05-01T04:07:42.966Z,10.40
2023-05-01T04:10:11.321Z,10.40
2023-05-01T04:12:39.589Z,10.50
2023-05-01T04:15:08.754Z,10.40
2023-05-01T04:17:37.186Z,10.40
2023-05-01T04:20:07.736Z,10.50
2023-05-01T04:22:36.048Z,10.50
2023-05-01T04:25:04.781Z,10.50
2023-05-01T04:27:32.906Z,10.50
2023-05-01T04:30:02.092Z,10.40
2023-05-01T04:32:30.283Z,10.40
2023-05-01T04:34:58.359Z,10.50
2023-05-01T04:37:27.957Z,10.40
2023-05-01T04:39:56.393Z,10.40
2023-05-01T04:42:24.832Z,10.40
2023-05-01T04:44:52.933Z,10.40
2023-05-01T04:47:21.133Z,10.40
2023-05-01T04:49:49.436Z,10.40
2023-05-01T04:52:17.539Z,10.50
2023-05-01T04:54:46.963Z,10.50
2023-05-01T04:57:15.051Z,10.40
2023-05-01T04:59:43.270Z,10.40
2023-05-01T05:02:11.454Z,10.40
2023-05-01T05:04:39.551Z,10.40
2023-05-01T05:07:09.160Z,10.40
2023-05-01T05:09:37.330Z,10.40
2023-05-01T05:12:07.330Z,10.40
2023-05-01T05:14:35.440Z,10.50
2023-05-01T05:17:03.508Z,10.50
2023-05-01T05:19:31.609Z,10.60
2023-05-01T05:21:59.733Z,10.60
2023-05-01T05:24:28.328Z,10.60
2023-05-01T05:26:56.398Z,10.60
2023-05-01T05:29:25.919Z,10.70
2023-05-01T05:31:54.009Z,10.70
2023-05-01T05:34:22.190Z,10.70
2023-05-01T05:36:50.722Z,10.70
2023-05-01T05:39:20.540Z,10.60
2023-05-01T05:41:49.207Z,10.60
2023-05-01T05:44:17.333Z,10.60
2023-05-01T05:46:46.882Z,10.70
2023-05-01T05:49:15.089Z,10.70
2023-05-01T05:51:43.141Z,10.70
2023-05-01T05:54:11.378Z,10.70
2023-05-01T05:56:39.400Z,10.60
2023-05-01T05:59:07.525Z,10.70
2023-05-01T06:01:37.251Z,10.80
2023-05-01T06:04:06.832Z,10.90
2023-05-01T06:06:36.020Z,11.00
2023-05-01T06:09:04.432Z,11.00
2023-05-01T06:11:32.575Z,11.10
2023-05-01T06:14:01.047Z,11.10
2023-05-01T06:16:29.297Z,11.20
2023-05-01T06:18:57.578Z,11.30
2023-05-01T06:21:27.066Z,11.30
2023-05-01T06:23:55.285Z,11.30
2023-05-01T06:26:23.447Z,11.30
2023-05-01T06:28:51.592Z,11.50
2023-05-01T06:31:20.800Z,11.50
2023-05-01T06:33:48.851Z,11.70
2023-05-01T06:36:16.949Z,11.60
2023-05-01T06:38:48.871Z,11.70
2023-05-01T06:41:17.399Z,11.80
2023-05-01T06:43:45.528Z,11.80
2023-05-01T06:46:14.009Z,11.70
2023-05-01T06:48:42.145Z,11.80
2023-05-01T06:51:10.398Z,11.80
2023-05-01T06:53:40.320Z,11.80
2023-05-01T06:56:10.054Z,11.80
2023-05-01T06:58:38.254Z,11.90
2023-05-01T07:01:06.662Z,11.90
2023-05-01T07:03:34.957Z,12.00
2023-05-01T07:06:03.195Z,12.10
2023-05-01T07:08:31.328Z,12.10
2023-05-01T07:10:59.610Z,12.20
2023-05-01T07:13:29.271Z,12.30
2023-05-01T07:15:57.300Z,12.50
2023-05-01T07:18:25.735Z,12.40
2023-05-01T07:20:53.881Z,12.60
2023-05-01T07:23:23.674Z,12.50
2023-05-01T07:25:51.968Z,12.70
2023-05-01T07:28:21.885Z,12.80
2023-05-01T07:30:51.730Z,12.70
2023-05-01T07:33:20.092Z,12.80
2023-05-01T07:35:48.367Z,12.80
2023-05-01T07:38:17.383Z,13.00
2023-05-01T07:40:45.518Z,13.20
2023-05-01T07:43:13.648Z,13.30
2023-05-01T07:45:42.997Z,13.30
2023-05-01T07:48:13.349Z,13.30
2023-05-01T07:50:41.698Z,13.40
2023-05-01T07:53:09.845Z,13.40
2023-05-01T07:55:38.554Z,13.30
2023-05-01T07:58:07.263Z,13.40
2023-05-01T08:00:36.918Z,13.40
2023-05-01T08:03:05.267Z,13.50
2023-05-01T08:05:34.838Z,13.50
2023-05-01T08:08:03.506Z,13.60
2023-05-01T08:10:32.037Z,13.70
2023-05-01T08:13:00.635Z,13.60
2023-05-01T08:15:28.928Z,13.60
2023-05-01T08:17:57.617Z,13.70
2023-05-01T08:20:26.462Z,13.70
2023-05-01T08:22:56.491Z,13.70
2023-05-01T08:25:25.002Z,13.60
2023-05-01T08:27:53.580Z,13.60
2023-05-01T08:30:22.037Z,13.70
2023-05-01T08:32:50.706Z,13.70
2023-05-01T08:35:19.315Z,13.60
2023-05-01T08:37:47.933Z,13.50
2023-05-01T08:40:17.892Z,13.50
2023-05-01T08:42:46.642Z,13.50
2023-05-01T08:45:15.515Z,13.50
2023-05-01T08:47:45.093Z,13.50
2023-05-01T08:50:16.497Z,13.60
2023-05-01T08:52:45.346Z,13.60
2023-05-01T08:55:15.197Z,13.70
2023-05-01T08:57:48.787Z,13.80
2023-05-01T09:00:20.913Z,13.90
2023-05-01T09:02:50.787Z,14.10
2023-05-01T09:05:20.966Z,14.20
2023-05-01T09:07:50.093Z,14.40
2023-05-01T09:10:19.521Z,14.50
2023-05-01T09:12:56.567Z,14.80
2023-05-01T09:15:27.078Z,14.90
2023-05-01T09:17:56.614Z,15.30
2023-05-01T09:20:27.069Z,15.30
2023-05-01T09:22:57.110Z,15.50
2023-05-01T09:25:25.649Z,15.70
2023-05-01T09:27:57.141Z,15.90
2023-05-01T09:30:33.242Z,16.00
2023-05-01T09:33:09.020Z,16.20
2023-05-01T09:35:52.676Z,16.20
2023-05-01T09:38:23.185Z,16.00
2023-05-01T09:40:52.381Z,16.30
2023-05-01T09:43:30.779Z,16.50
2023-05-01T09:46:05.057Z,16.90
2023-05-01T09:48:35.712Z,17.10
2023-05-01T09:51:21.886Z,17.10
2023-05-01T09:53:50.233Z,17.20
2023-05-01T09:56:20.657Z,17.30
2023-05-01T09:58:51.960Z,17.20
2023-05-01T10:01:38.015Z,17.10
2023-05-01T10:04:09.153Z,17.10
2023-05-01T10:06:38.152Z,17.40
2023-05-01T10:09:10.866Z,17.60
2023-05-01T10:11:53.781Z,17.70
2023-05-01T10:14:24.327Z,17.70
2023-05-01T10:16:53.706Z,17.50
2023-05-01T10:19:22.246Z,17.60
2023-05-01T10:21:50.760Z,17.60
2023-05-01T10:24:19.040Z,17.60
2023-05-01T10:26:49.790Z,17.70
2023-05-01T10:29:20.250Z,17.50
2023-05-01T10:31:49.721Z,17.30
2023-05-01T10:34:22.153Z,17.40
2023-05-01T10:36:57.089Z,17.40
2023-05-01T10:39:32.198Z,17.50
2023-05-01T10:42:10.803Z,17.50
2023-05-01T10:44:39.346Z,17.30
2023-05-01T10:47:44.764Z,17.30
2023-05-01T10:50:15.957Z,17.10
2023-05-01T10:53:18.487Z,17.00
2023-05-01T10:55:48.053Z,17.10
2023-05-01T10:58:51.962Z,17.30
2023-05-01T11:01:31.424Z,17.50
2023-05-01T11:04:01.212Z,17.50
2023-05-01T11:06:31.233Z,17.70
2023-05-01T11:08:59.445Z,17.90
2023-05-01T11:11:50.345Z,18.10
2023-05-01T11:14:18.749Z,18.20
2023-05-01T11:16:49.265Z,18.50
2023-05-01T11:19:52.585Z,18.90
2023-05-01T11:22:22.725Z,19.40
2023-05-01T11:24:50.929Z,19.60
2023-05-01T11:27:19.001Z,20.00
2023-05-01T11:29:48.796Z,20.00
2023-05-01T11:32:23.599Z,20.00
2023-05-01T11:34:53.077Z,20.00
2023-05-01T11:37:40.944Z,20.00
2023-05-01T11:40:21.029Z,19.90
2023-05-01T11:42:49.298Z,19.90
2023-05-01T11:45:17.918Z,20.50
2023-05-01T11:47:46.117Z,20.80
2023-05-01T11:50:14.403Z,20.80
2023-05-01T11:52:49.719Z,21.10
2023-05-01T11:55:18.472Z,21.70
2023-05-01T11:57:48.400Z,21.40
2023-05-01T12:00:17.744Z,21.00
2023-05-01T12:02:58.564Z,20.50
2023-05-01T12:05:27.600Z,20.20
2023-05-01T12:08:09.718Z,19.70
2023-05-01T12:10:38.584Z,19.40
2023-05-01T12:13:08.150Z,19.10
2023-05-01T12:15:38.180Z,18.70
2023-05-01T12:18:06.850Z,18.80
2023-05-01T12:20:43.046Z,18.50
2023-05-01T12:23:16.045Z,18.30
2023-05-01T12:25:45.116Z,18.30
2023-05-01T12:28:14.644Z,18.20
2023-05-01T12:30:43.937Z,18.30
2023-05-01T12:33:13.425Z,18.10
2023-05-01T12:35:42.144Z,17.80
2023-05-01T12:38:15.923Z,17.70
2023-05-01T12:40:54.665Z,17.50
2023-05-01T12:43:30.712Z,17.50
2023-05-01T12:45:59.193Z,17.50
2023-05-01T12:48:27.979Z,17.30
2023-05-01T12:50:56.866Z,17.10
2023-05-01T12:53:27.581Z,17.00
2023-05-01T12:55:57.244Z,17.00
2023-05-01T12:58:35.335Z,16.90
2023-05-01T13:01:03.770Z,16.80
2023-05-01T13:03:32.319Z,16.90
2023-05-01T13:06:02.031Z,16.60
2023-05-01T13:08:33.222Z,16.50
2023-05-01T13:11:09.718Z,16.40
2023-05-01T13:13:38.592Z,16.30
2023-05-01T13:16:08.832Z,16.40
2023-05-01T13:18:44.595Z,16.40
2023-05-01T13:21:15.713Z,16.30
2023-05-01T13:23:54.000Z,16.20
2023-05-01T13:26:28.813Z,16.30
2023-05-01T13:28:57.650Z,16.30
2023-05-01T13:31:26.697Z,16.30
2023-05-01T13:33:55.795Z,16.30
2023-05-01T13:36:26.648Z,16.20
2023-05-01T13:38:57.839Z,16.20
2023-05-01T13:41:27.769Z,16.20
2023-05-01T13:43:57.614Z,16.20
2023-05-01T13:46:27.634Z,16.20
2023-05-01T13:48:56.356Z,16.10
2023-05-01T13:51:26.414Z,16.10
2023-05-01T13:53:57.392Z,16.10
2023-05-01T13:56:25.784Z,16.10
2023-05-01T13:58:53.931Z,16.10
2023-05-01T14:01:23.504Z,16.10
2023-05-01T14:03:52.134Z,16.20
2023-05-01T14:06:22.204Z,16.50
2023-05-01T14:08:51.934Z,16.70
2023-05-01T14:11:21.438Z,17.00
2023-05-01T14:13:51.939Z,17.00
2023-05-01T14:16:24.816Z,17.30
2023-05-01T14:18:55.337Z,17.70
2023-05-01T14:21:25.275Z,18.30
2023-05-01T14:23:53.992Z,19.10
2023-05-01T14:26:24.806Z,19.10
2023-05-01T14:28:53.248Z,18.70
2023-05-01T14:31:27.190Z,19.00
2023-05-01T14:33:58.478Z,19.30
2023-05-01T14:36:28.389Z,19.20
2023-05-01T14:38:57.525Z,19.20
2023-05-01T14:41:27.235Z,19.30
2023-05-01T14:43:55.342Z,19.60
2023-05-01T14:46:29.939Z,19.60
2023-05-01T14:48:58.541Z,19.20
2023-05-01T14:51:27.228Z,19.20
2023-05-01T14:53:56.094Z,19.20
2023-05-01T14:56:26.093Z,19.30
2023-05-01T14:58:54.263Z,19.10
2023-05-01T15:01:22.496Z,19.10
2023-05-01T15:03:50.842Z,19.10
2023-05-01T15:06:19.216Z,19.10
2023-05-01T15:08:47.550Z,18.70
2023-05-01T15:11:16.681Z,18.70
2023-05-01T15:13:46.266Z,18.70
2023-05-01T15:16:14.309Z,18.70
2023-05-01T15:18:42.461Z,18.60
2023-05-01T15:21:10.856Z,18.50
2023-05-01T15:23:38.918Z,18.60
2023-05-01T15:26:07.106Z,18.60
2023-05-01T15:28:35.142Z,18.60
2023-05-01T15:31:04.707Z,18.50
2023-05-01T15:33:32.771Z,18.20
2023-05-01T15:36:00.824Z,18.10
2023-05-01T15:38:30.338Z,18.20
2023-05-01T15:40:58.405Z,18.20
2023-05-01T15:43:26.529Z,18.10
2023-05-01T15:45:57.879Z,17.90
2023-05-01T15:48:27.694Z,17.80
2023-05-01T15:50:55.840Z,17.80
2023-05-01T15:53:25.125Z,17.60
2023-05-01T15:55:57.554Z,17.60
2023-05-01T15:58:25.824Z,17.50
2023-05-01T16:00:53.986Z,17.50
2023-05-01T16:03:22.372Z,17.70
2023-05-01T16:05:52.267Z,17.90
2023-05-01T16:08:21.080Z,18.00
2023-05-01T16:10:49.199Z,18.00
2023-05-01T16:13:17.356Z,18.00
2023-05-01T16:15:45.373Z,18.00
2023-05-01T16:18:19.843Z,18.00
2023-05-01T16:20:47.954Z,18.00
2023-05-01T16:23:17.391Z,17.90
2023-05-01T16:25:45.574Z,17.90
2023-05-01T16:28:13.691Z,17.80
2023-05-01T16:30:45.166Z,17.80
2023-05-01T16:33:18.717Z,17.60
2023-05-01T16:35:48.502Z,17.50
2023-05-01T16:38:18.179Z,17.40
2023-05-01T16:40:48.097Z,17.50
2023-05-01T16:43:16.563Z,17.50
2023-05-01T16:45:46.614Z,17.40
2023-05-01T16:48:19.041Z,17.40
2023-05-01T16:50:47.223Z,17.30
2023-05-01T16:53:17.653Z,17.20
2023-05-01T16:55:46.225Z,17.30
2023-05-01T16:58:14.314Z,17.20
2023-05-01T17:00:43.263Z,17.10
2023-05-01T17:03:11.430Z,17.10
2023-05-01T17:05:39.570Z,17.10
2023-05-01T17:08:07.791Z,17.10
2023-05-01T17:10:38.360Z,16.90
2023-05-01T17:13:07.914Z,16.90
2023-05-01T17:15:35.895Z,16.90
2023-05-01T17:18:04.210Z,16.80
2023-05-01T17:20:32.472Z,16.70
2023-05-01T17:23:00.617Z,16.60
2023-05-01T17:25:28.800Z,16.60
2023-05-01T17:27:59.104Z,16.60
2023-05-01T17:30:27.300Z,16.50
2023-05-01T17:32:55.546Z,16.40
2023-05-01T17:35:23.964Z,16.30
2023-05-01T17:37:52.052Z,16.30
2023-05-01T17:40:20.351Z,16.20
2023-05-01T17:42:48.401Z,16.10
2023-05-01T17:45:17.969Z,16.10
2023-05-01T17:47:46.690Z,16.10
2023-05-01T17:50:15.185Z,16.00
2023-05-01T17:52:45.076Z,16.00
2023-05-01T17:55:17.058Z,15.90
2023-05-01T17:57:46.630Z,15.80
2023-05-01T18:00:17.219Z,15.80
2023-05-01T18:02:46.582Z,15.70
2023-05-01T18:05:14.867Z,15.60
2023-05-01T18:07:43.033Z,15.50
2023-05-01T18:10:12.154Z,15.50
2023-05-01T18:12:40.240Z,15.40
2023-05-01T18:15:09.569Z,15.40
2023-05-01T18:17:39.110Z,15.30
2023-05-01T18:20:08.635Z,15.20
2023-05-01T18:22:36.777Z,15.10
2023-05-01T18:25:05.424Z,15.10
2023-05-01T18:27:33.828Z,14.90
2023-05-01T18:30:02.118Z,14.90
2023-05-01T18:32:43.307Z,14.90
2023-05-01T18:35:17.776Z,14.80
2023-05-01T18:37:46.555Z,14.70
2023-05-01T18:40:15.005Z,14.70
2023-05-01T18:42:43.224Z,14.60
2023-05-01T18:45:11.669Z,14.50
2023-05-01T18:47:40.551Z,14.50
2023-05-01T18:50:10.655Z,14.40
2023-05-01T18:52:41.938Z,14.40
2023-05-01T18:55:11.582Z,14.30
2023-05-01T18:57:41.814Z,14.20
2023-05-01T19:00:11.247Z,14.00
2023-05-01T19:02:39.609Z,13.90
2023-05-01T19:05:09.407Z,13.90
2023-05-01T19:07:37.775Z,13.80
2023-05-01T19:10:08.500Z,13.80
2023-05-01T19:12:36.625Z,13.60
2023-05-01T19:15:05.146Z,13.50
2023-05-01T19:17:34.062Z,13.50
2023-05-01T19:20:04.637Z,13.40
2023-05-01T19:22:33.308Z,13.30
2023-05-01T19:25:01.598Z,13.30
2023-05-01T19:27:31.224Z,13.20
2023-05-01T19:30:01.164Z,13.10
2023-05-01T19:32:29.956Z,13.10
2023-05-01T19:34:58.125Z,13.00
2023-05-01T19:37:28.101Z,13.00
2023-05-01T19:39:56.475Z,13.00
2023-05-01T19:42:24.941Z,12.90
2023-05-01T19:44:54.539Z,12.80
2023-05-01T19:47:22.828Z,12.70
2023-05-01T19:49:51.030Z,12.70
2023-05-01T19:52:19.598Z,12.60
2023-05-01T19:54:47.788Z,12.60
2023-05-01T19:57:16.500Z,12.50
2023-05-01T19:59:44.797Z,12.50
2023-05-01T20:02:14.439Z,12.40
2023-05-01T20:04:42.687Z,12.40
2023-05-01T20:07:10.851Z,12.40
2023-05-01T20:09:39.260Z,12.30
2023-05-01T20:12:07.442Z,12.30
2023-05-01T20:14:35.775Z,12.30
2023-05-01T20:17:03.958Z,12.20
2023-05-01T20:19:33.581Z,12.20
2023-05-01T20:22:01.805Z,12.20
2023-05-01T20:24:30.091Z,12.10
2023-05-01T20:26:59.310Z,12.00
2023-05-01T20:29:28.205Z,12.00
2023-05-01T20:31:56.643Z,11.90
2023-05-01T20:34:25.161Z,11.90
2023-05-01T20:36:54.652Z,11.90
2023-05-01T20:39:22.727Z,11.80
2023-05-01T20:41:50.955Z,11.90
2023-05-01T20:44:19.262Z,11.90
2023-05-01T20:46:48.630Z,12.00
2023-05-01T20:49:17.044Z,12.10
2023-05-01T20:51:45.194Z,12.20
2023-05-01T20:54:14.671Z,12.20
2023-05-01T20:56:42.758Z,12.30
2023-05-01T20:59:11.051Z,12.30
2023-05-01T21:01:39.320Z,12.40
2023-05-01T21:04:07.622Z,12.40
2023-05-01T21:06:36.103Z,12.40
2023-05-01T21:09:06.127Z,12.40
2023-05-01T21:11:35.622Z,12.40
2023-05-01T21:14:03.809Z,12.40
2023-05-01T21:16:32.057Z,12.40
2023-05-01T21:19:00.287Z,12.30
2023-05-01T21:21:29.066Z,12.40
2023-05-01T21:23:57.302Z,12.40
2023-05-01T21:26:25.714Z,12.40
2023-05-01T21:28:55.175Z,12.40
2023-05-01T21:31:27.238Z,12.50
2023-05-01T21:33:55.724Z,12.40
2023-05-01T21:36:23.922Z,12.40
2023-05-01T21:38:52.062Z,12.30
2023-05-01T21:41:20.166Z,12.40
2023-05-01T21:43:48.339Z,12.40
2023-05-01T21:46:20.035Z,12.30
2023-05-01T21:48:51.425Z,12.40
2023-05-01T21:51:19.772Z,12.30
2023-05-01T21:53:47.851Z,12.30
2023-05-01T21:56:16.497Z,12.30
2023-05-01T21:58:44.724Z,12.20
2023-05-01T22:01:14.252Z,12.30
2023-05-01T22:03:44.605Z,12.30
2023-05-01T22:06:12.936Z,12.30
2023-05-01T22:08:41.961Z,12.20
2023-05-01T22:11:10.055Z,12.30
2023-05-01T22:13:38.128Z,12.30
2023-05-01T22:16:06.780Z,12.30
2023-05-01T22:18:34.976Z,12.30
2023-05-01T22:21:04.710Z,12.30
2023-05-01T22:23:32.841Z,12.20
2023-05-01T22:26:01.055Z,12.20
2023-05-01T22:28:29.151Z,12.20
2023-05-01T22:30:57.293Z,12.20
2023-05-01T22:33:25.568Z,12.20
2023-05-01T22:35:53.771Z,12.10
2023-05-01T22:38:23.260Z,12.10
2023-05-01T22:40:51.586Z,12.00
2023-05-01T22:43:20.099Z,12.00
2023-05-01T22:45:48.353Z,11.90
2023-05-01T22:48:16.651Z,11.80
2023-05-01T22:50:44.870Z,11.80
2023-05-01T22:53:13.050Z,11.80
2023-05-01T22:55:42.505Z,11.70
2023-05-01T22:58:10.682Z,11.70
2023-05-01T23:00:38.883Z,11.60
2023-05-01T23:03:07.096Z,11.60
2023-05-01T23:05:35.293Z,11.60
2023-05-01T23:08:03.942Z,11.60
2023-05-01T23:10:33.760Z,11.60
2023-05-01T23:13:03.482Z,11.60
2023-05-01T23:15:31.517Z,11.70
2023-05-01T23:17:59.774Z,11.70
2023-05-01T23:20:27.988Z,11.70
2023-05-01T23:22:56.604Z,11.70
2023-05-01T23:25:26.632Z,11.70
2023-05-01T23:27:56.550Z,11.70
2023-05-01T23:30:26.137Z,11.70
2023-05-01T23:32:57.221Z,11.60
2023-05-01T23:35:26.148Z,11.60
2023-05-01T23:37:54.329Z,11.60
2023-05-01T23:40:22.638Z,11.60
2023-05-01T23:42:50.962Z,11.60
2023-05-01T23:45:19.346Z,11.60
2023-05-01T23:47:48.938Z,11.50
2023-05-01T23:50:17.192Z,11.50
2023-05-01T23:52:45.698Z,11.50
2023-05-01T23:55:14.637Z,11.40
2023-05-01T23:57:43.075Z,11.40
